Time;durP1;ratioP1;P1;durP2;ratioP2;P2;SDS_P1;SDS_P2;PMS_P1;PMS_P2;Temp;Humidity;BMP_temperature;BMP_pressure;BME280_temperature;BME280_humidity;BME280_pressure;Samples;Min_cycle;Max_cycle;Signal;HPM_P1;HPM_P2
2022/03/30 05:04:51;;;;;;;66.90;28.92;;;;;;;0.39;71.45;99105.19;5170739;27;20172;-74
2022/03/30 05:07:16;;;;;;;46.25;25.35;;;;;;;0.50;71.41;99102.47;5173379;27;20092;-74
2022/03/30 05:09:41;;;;;;;57.65;26.13;;;;;;;0.63;71.71;99100.47;5173536;27;20483;-73
2022/03/30 05:12:07;;;;;;;52.53;26.10;;;;;;;0.80;71.78;99106.84;5172464;27;25497;-73
2022/03/30 05:14:33;;;;;;;61.30;28.13;;;;;;;0.97;72.37;99108.00;5173721;27;20138;-75
2022/03/30 05:16:59;;;;;;;55.58;28.92;;;;;;;1.17;71.99;99106.22;5173679;27;20100;-69
2022/03/30 05:19:25;;;;;;;59.50;26.75;;;;;;;1.37;71.85;99110.66;5173725;27;20034;-73
2022/03/30 05:21:50;;;;;;;53.53;26.88;;;;;;;1.54;71.64;99104.72;5173844;27;20042;-72
2022/03/30 05:24:15;;;;;;;57.65;26.63;;;;;;;1.74;72.02;99110.78;5173412;27;20067;-74
2022/03/30 05:26:41;;;;;;;65.55;29.27;;;;;;;1.93;71.96;99101.19;5173588;27;20117;-72
2022/03/30 05:29:06;;;;;;;70.22;30.95;;;;;;;2.11;71.99;99107.38;5171113;27;20027;-72
2022/03/30 05:31:31;;;;;;;100.65;41.92;;;;;;;2.30;71.81;99100.44;5153182;27;20031;-72
2022/03/30 05:33:57;;;;;;;115.55;48.65;;;;;;;2.47;71.68;99111.97;5173319;27;20031;-71
2022/03/30 05:36:22;;;;;;;103.35;46.35;;;;;;;2.66;71.67;99104.00;5173044;27;20117;-72
2022/03/30 05:38:48;;;;;;;91.32;42.72;;;;;;;2.82;71.38;99100.72;5172987;27;25006;-72
2022/03/30 05:41:14;;;;;;;80.78;41.20;;;;;;;2.99;71.32;99100.91;5173436;27;20501;-71
2022/03/30 05:43:39;;;;;;;78.65;36.20;;;;;;;3.16;71.14;99107.19;5172120;27;20038;-72
2022/03/30 05:46:06;;;;;;;68.32;31.23;;;;;;;3.32;71.31;99109.97;5171034;27;20513;-72
2022/03/30 05:48:31;;;;;;;73.55;32.30;;;;;;;3.50;71.16;99101.22;5152080;27;20669;-71
2022/03/30 05:50:58;;;;;;;72.70;30.08;;;;;;;3.65;70.85;99110.25;5170863;27;20057;-72
2022/03/30 05:53:24;;;;;;;59.60;28.85;;;;;;;3.81;70.85;99112.19;5170901;27;20050;-72
2022/03/30 05:55:50;;;;;;;73.95;29.05;;;;;;;3.99;70.49;99113.97;5170432;27;20042;-71
2022/03/30 05:58:15;;;;;;;68.75;27.63;;;;;;;4.12;70.21;99113.56;5171111;27;20027;-72
2022/03/30 06:00:42;;;;;;;55.67;25.60;;;;;;;4.19;69.60;99109.31;5173119;27;20034;-73
2022/03/30 06:03:10;;;;;;;51.38;26.42;;;;;;;4.27;69.68;99109.38;5165760;27;20050;-73
2022/03/30 06:05:37;;;;;;;52.60;26.13;;;;;;;4.39;69.61;99107.28;5151617;27;20031;-73
2022/03/30 06:08:02;;;;;;;49.25;26.55;;;;;;;4.56;69.91;99105.56;5152069;27;20051;-75
2022/03/30 06:10:29;;;;;;;52.15;25.17;;;;;;;4.77;69.80;99104.31;5151988;27;20068;-74
2022/03/30 06:12:56;;;;;;;54.25;26.27;;;;;;;4.95;70.10;99115.59;5151338;27;20039;-73
2022/03/30 06:15:22;;;;;;;46.55;25.77;;;;;;;5.15;69.70;99115.31;5142851;27;20031;-72
2022/03/30 06:17:48;;;;;;;52.72;26.42;;;;;;;5.32;69.63;99110.91;5137882;27;20117;-73
2022/03/30 06:20:13;;;;;;;46.45;26.92;;;;;;;5.45;68.83;99113.06;5137917;27;20036;-74
2022/03/30 06:22:41;;;;;;;51.17;26.60;;;;;;;5.59;69.18;99113.25;5137935;27;20380;-73
2022/03/30 06:25:09;;;;;;;63.13;28.20;;;;;;;5.78;69.12;99105.97;5137887;27;20024;-73
2022/03/30 06:27:34;;;;;;;60.05;26.50;;;;;;;6.01;68.96;99106.13;5137745;27;20035;-73
2022/03/30 06:30:00;;;;;;;58.53;28.05;;;;;;;6.22;68.73;99102.13;5144072;27;20034;-71
2022/03/30 06:32:25;;;;;;;47.33;26.13;;;;;;;6.44;68.48;99105.91;5157983;27;20110;-73
2022/03/30 06:34:50;;;;;;;56.00;28.05;;;;;;;6.67;68.14;99113.94;5139929;27;20102;-71
2022/03/30 06:37:16;;;;;;;60.35;26.90;;;;;;;6.89;68.17;99108.84;5158318;27;20054;-70
2022/03/30 06:39:41;;;;;;;64.95;29.63;;;;;;;7.14;68.31;99114.03;5158342;27;20467;-70
2022/03/30 06:42:07;;;;;;;63.17;27.73;;;;;;;7.44;68.08;99115.00;5158157;27;20497;-70
2022/03/30 06:44:32;;;;;;;63.97;29.00;;;;;;;7.72;67.41;99117.94;5158409;27;20468;-71
2022/03/30 06:46:58;;;;;;;50.78;26.83;;;;;;;8.05;67.29;99109.69;5157597;27;20069;-71
2022/03/30 06:49:23;;;;;;;46.80;23.40;;;;;;;8.38;66.73;99109.38;5139468;27;20031;-72
2022/03/30 06:51:48;;;;;;;45.58;22.75;;;;;;;8.63;65.69;99107.28;5158549;27;20034;-71
2022/03/30 06:54:14;;;;;;;44.05;23.20;;;;;;;8.84;64.57;99096.91;5158247;27;20028;-72
2022/03/30 06:56:39;;;;;;;38.33;22.55;;;;;;;8.95;64.24;99096.44;5158347;27;20030;-69
2022/03/30 06:59:05;;;;;;;43.80;23.88;;;;;;;9.05;63.57;99102.28;5157333;27;20055;-71
2022/03/30 07:01:31;;;;;;;38.80;20.30;;;;;;;9.23;63.78;99106.38;5158060;27;20029;-69
2022/03/30 07:03:56;;;;;;;42.50;22.02;;;;;;;9.45;63.68;99113.31;5157201;27;20043;-68
2022/03/30 07:06:21;;;;;;;38.83;20.38;;;;;;;9.73;63.06;99112.56;5158087;27;20027;-70
2022/03/30 07:11:30;;;;;;;39.08;19.98;;;;;;;10.28;62.58;99109.31;5157980;27;20130;-72
2022/03/30 07:13:58;;;;;;;49.40;21.55;;;;;;;10.64;61.97;99103.78;5157380;27;22492;-71
2022/03/30 07:16:24;;;;;;;38.63;21.25;;;;;;;10.90;61.04;99106.78;5157854;27;20058;-70
2022/03/30 07:18:50;;;;;;;37.35;21.67;;;;;;;11.13;60.37;99099.28;5156715;27;20035;-71
2022/03/30 07:21:16;;;;;;;40.33;21.45;;;;;;;11.40;59.53;99101.19;5157102;27;20031;-70
2022/03/30 07:23:41;;;;;;;45.30;21.10;;;;;;;11.61;58.94;99102.88;5157626;27;20035;-70
2022/03/30 07:26:07;;;;;;;35.58;19.75;;;;;;;11.95;58.70;99103.75;5156309;27;20030;-70
2022/03/30 07:28:35;;;;;;;36.42;19.90;;;;;;;12.23;57.64;99100.00;5157122;27;20049;-69
2022/03/30 07:31:01;;;;;;;36.15;19.40;;;;;;;12.53;56.90;99095.84;5155758;27;20160;-72
2022/03/30 07:33:26;;;;;;;38.70;18.80;;;;;;;12.69;55.08;99102.56;5157239;27;20155;-72
2022/03/30 07:35:51;;;;;;;29.30;18.17;;;;;;;12.85;55.33;99095.94;5156797;27;20391;-70
2022/03/30 07:38:18;;;;;;;39.00;19.02;;;;;;;13.09;54.65;99088.19;5156867;27;20027;-72
2022/03/30 07:40:48;;;;;;;31.05;19.20;;;;;;;13.37;54.22;99095.09;5156701;27;20496;-71
2022/03/30 07:43:14;;;;;;;36.05;18.60;;;;;;;13.66;53.38;99098.19;5156397;27;20024;-72
2022/03/30 07:45:40;;;;;;;36.85;18.40;;;;;;;13.74;52.30;99097.91;5157231;27;20033;-71
2022/03/30 07:48:06;;;;;;;34.90;19.50;;;;;;;13.89;52.13;99097.59;5156522;27;20019;-70
2022/03/30 07:50:31;;;;;;;36.05;17.50;;;;;;;14.27;51.98;99096.66;5156472;27;20111;-69
2022/03/30 07:52:57;;;;;;;27.70;17.13;;;;;;;14.77;50.74;99098.38;5156234;27;20103;-69
2022/03/30 07:55:23;;;;;;;31.77;18.05;;;;;;;15.06;49.80;99094.13;5157248;27;20096;-73
2022/03/30 07:57:48;;;;;;;32.72;18.30;;;;;;;15.39;48.87;99090.16;5156960;27;20042;-69
2022/03/30 08:00:16;;;;;;;32.35;18.33;;;;;;;15.46;47.42;99091.91;5157082;27;20464;-70
2022/03/30 08:02:42;;;;;;;35.28;18.67;;;;;;;15.35;46.39;99088.16;5156459;27;20487;-71
2022/03/30 08:05:10;;;;;;;37.58;20.05;;;;;;;15.34;46.31;99083.84;5156509;27;20030;-73
2022/03/30 08:07:36;;;;;;;35.65;20.50;;;;;;;15.32;46.38;99085.91;5156855;27;20053;-72
2022/03/30 08:10:01;;;;;;;37.47;18.00;;;;;;;15.27;45.25;99083.94;5148749;27;20063;-72
2022/03/30 08:12:26;;;;;;;30.58;18.33;;;;;;;15.41;45.62;99084.56;5135522;27;20049;-73
2022/03/30 08:14:52;;;;;;;39.55;20.13;;;;;;;15.66;44.39;99092.44;5135921;27;20357;-70
2022/03/30 08:17:18;;;;;;;31.42;19.00;;;;;;;15.96;44.42;99088.88;5136094;27;20034;-74
2022/03/30 08:19:43;;;;;;;39.13;19.77;;;;;;;16.32;43.51;99084.34;5135696;27;20089;-73
2022/03/30 08:22:28;;;;;;;31.42;18.75;;;;;;;16.42;41.91;99089.13;5135795;27;20043;-70
2022/03/30 08:25:03;;;;;;;42.25;21.55;;;;;;;16.64;41.43;99078.56;5134187;27;20036;-70
2022/03/30 08:27:30;;;;;;;33.47;19.48;;;;;;;17.04;40.82;99085.03;5132373;27;20063;-71
2022/03/30 08:29:57;;;;;;;37.03;20.30;;;;;;;17.50;40.32;99091.25;5135380;27;20112;-74
2022/03/30 08:32:23;;;;;;;31.02;18.92;;;;;;;18.17;39.58;99081.56;5135717;27;20031;-71
2022/03/30 08:34:50;;;;;;;33.20;19.55;;;;;;;18.68;37.66;99083.31;5134629;27;20031;-70
2022/03/30 08:37:17;;;;;;;33.55;20.90;;;;;;;18.49;35.84;99086.31;5134803;27;20027;-72
2022/03/30 08:39:42;;;;;;;36.75;19.80;;;;;;;18.39;36.86;99078.91;5135247;27;20443;-75
2022/03/30 08:42:10;;;;;;;31.48;19.55;;;;;;;18.90;36.61;99076.06;5135480;27;20035;-81
2022/03/30 08:44:36;;;;;;;31.15;19.38;;;;;;;19.23;35.55;99074.25;5135599;27;20110;-74
2022/03/30 08:47:03;;;;;;;33.72;19.45;;;;;;;19.79;34.52;99073.13;5135398;27;20116;-70
2022/03/30 08:49:33;;;;;;;34.70;20.13;;;;;;;20.40;33.96;99071.94;5135708;27;20038;-70
2022/03/30 08:52:00;;;;;;;33.92;18.33;;;;;;;21.05;33.09;99075.19;5135287;27;20095;-70
2022/03/30 08:54:26;;;;;;;29.02;18.30;;;;;;;21.90;32.05;99065.81;5134702;27;20051;-71
2022/03/30 08:56:51;;;;;;;35.60;19.13;;;;;;;22.58;30.06;99061.88;5135046;27;20063;-70
2022/03/30 08:59:21;;;;;;;29.80;19.75;;;;;;;22.97;28.69;99063.88;5135005;27;20476;-69
2022/03/30 09:01:47;;;;;;;33.05;19.13;;;;;;;23.51;28.24;99057.84;5135252;27;20488;-72
2022/03/30 09:04:14;;;;;;;31.23;19.08;;;;;;;24.21;26.95;99065.69;5134883;27;20044;-73
2022/03/30 09:06:42;;;;;;;30.58;17.92;;;;;;;24.28;27.17;99068.06;5134894;27;20073;-71
2022/03/30 09:09:09;;;;;;;31.85;18.83;;;;;;;24.32;26.17;99069.91;5134802;27;20787;-73
2022/03/30 09:11:53;;;;;;;26.83;17.55;;;;;;;24.81;25.83;99064.47;5134663;27;20050;-73
2022/03/30 09:14:21;;;;;;;32.80;18.02;;;;;;;25.44;24.69;99067.97;5134642;27;20055;-75
2022/03/30 09:16:49;;;;;;;29.63;18.35;;;;;;;26.17;23.14;99060.19;5134884;27;20036;-68
2022/03/30 09:19:16;;;;;;;32.83;17.75;;;;;;;27.10;22.57;99061.06;5134814;27;20030;-69
2022/03/30 09:21:44;;;;;;;29.60;18.00;;;;;;;27.92;21.74;99061.03;5135151;27;20396;-72
2022/03/30 09:24:09;;;;;;;28.85;18.20;;;;;;;28.39;20.92;99058.72;5135134;27;20024;-70
2022/03/30 09:26:35;;;;;;;25.05;16.35;;;;;;;28.44;20.62;99055.81;5107360;28;20032;-76
2022/03/30 09:29:01;;;;;;;27.63;15.88;;;;;;;28.37;20.50;99050.78;5113758;28;20107;-72
2022/03/30 09:31:27;;;;;;;24.40;16.88;;;;;;;27.87;20.20;99059.22;5119005;27;20510;-75
2022/03/30 09:33:53;;;;;;;26.70;15.15;;;;;;;28.57;19.82;99056.00;5134288;27;28899;-70
2022/03/30 09:36:29;;;;;;;25.50;16.52;;;;;;;29.77;18.70;99060.31;5134942;27;20040;-73
2022/03/30 09:38:54;;;;;;;25.25;15.60;;;;;;;31.06;17.73;99053.78;5134134;27;20099;-73
2022/03/30 09:41:20;;;;;;;25.05;16.00;;;;;;;31.13;17.39;99053.25;5134708;27;20023;-69
2022/03/30 09:43:45;;;;;;;21.65;14.60;;;;;;;32.05;16.60;99048.63;5134677;27;20476;-69
2022/03/30 09:46:12;;;;;;;21.95;15.38;;;;;;;33.01;15.87;99052.91;5134077;27;33595;-68
2022/03/30 09:48:49;;;;;;;24.10;15.45;;;;;;;33.80;15.08;99043.28;5134442;27;20388;-71
2022/03/30 09:51:16;;;;;;;26.48;15.88;;;;;;;33.51;14.57;99044.47;5137205;27;20053;-71
2022/03/30 09:53:42;;;;;;;23.73;15.20;;;;;;;32.87;14.83;99047.75;5137819;27;20063;-69
2022/03/30 09:56:22;;;;;;;25.33;15.93;;;;;;;32.69;14.09;99027.88;5137420;27;20491;-69
2022/03/30 09:58:49;;;;;;;22.63;16.13;;;;;;;32.76;14.98;99032.03;5136495;27;20471;-71
2022/03/30 10:01:20;;;;;;;26.10;15.57;;;;;;;33.77;14.23;99032.97;5137213;27;20058;-72
2022/03/30 10:03:48;;;;;;;23.95;16.85;;;;;;;34.35;13.96;99029.69;5136548;27;20052;-69
2022/03/30 10:06:19;;;;;;;29.35;16.35;;;;;;;35.74;12.96;99027.44;5137050;27;20031;-72
2022/03/30 10:08:47;;;;;;;22.88;15.40;;;;;;;35.82;12.52;99022.88;5137436;27;20028;-72
2022/03/30 10:11:15;;;;;;;24.15;16.83;;;;;;;35.13;13.11;99025.47;5122937;27;105921;-74
2022/03/30 10:13:41;;;;;;;23.33;16.63;;;;;;;36.22;12.27;99020.75;5098940;27;106189;-73
2022/03/30 10:16:08;;;;;;;23.70;15.68;;;;;;;37.38;11.91;99026.72;5126947;27;105763;-73
2022/03/30 10:18:34;;;;;;;19.65;14.43;;;;;;;38.30;10.97;99018.84;5094280;27;106126;-73
2022/03/30 10:21:16;;;;;;;23.02;13.35;;;;;;;39.33;10.51;99011.44;5115196;27;105909;-72
2022/03/30 10:23:53;;;;;;;23.60;13.95;;;;;;;40.12;9.91;99010.75;5040878;27;106319;-72
2022/03/30 10:26:52;;;;;;;21.52;14.13;;;;;;;40.69;9.80;99009.88;5049780;27;106025;-71
2022/03/30 10:29:22;;;;;;;23.23;14.43;;;;;;;40.40;9.70;98998.78;5049388;27;106405;-73
2022/03/30 10:32:18;;;;;;;19.10;14.00;;;;;;;40.62;9.48;98995.97;5050149;27;106087;-72
2022/03/30 10:35:03;;;;;;;22.98;15.43;;;;;;;40.81;9.23;98997.47;5049854;27;106160;-70
2022/03/30 10:37:29;;;;;;;21.63;14.35;;;;;;;40.41;9.52;98997.56;5049768;27;106000;-70
2022/03/30 10:39:55;;;;;;;21.02;14.50;;;;;;;38.41;10.38;98986.38;5048870;27;105914;-73
2022/03/30 10:42:21;;;;;;;25.77;15.65;;;;;;;35.41;11.81;98986.50;5050314;27;105938;-69
2022/03/30 10:44:51;;;;;;;25.25;16.10;;;;;;;33.92;12.63;98987.16;5050295;27;106204;-74
2022/03/30 10:47:22;;;;;;;22.15;16.38;;;;;;;33.23;12.75;98984.50;5049627;27;106055;-71
2022/03/30 10:49:51;;;;;;;22.00;16.17;;;;;;;32.79;13.48;98976.97;5049601;27;105958;-72
2022/03/30 10:52:35;;;;;;;22.50;17.15;;;;;;;32.10;13.48;98973.25;5050420;27;105957;-70
2022/03/30 10:55:12;;;;;;;26.48;15.98;;;;;;;31.44;13.70;98973.03;5030408;27;106313;-71
2022/03/30 10:57:58;;;;;;;22.83;17.30;;;;;;;30.26;14.39;98970.19;5049306;27;106009;-70
2022/03/30 11:00:29;;;;;;;25.70;16.35;;;;;;;29.06;15.36;98965.50;5049252;27;106088;-71
2022/03/30 11:03:16;;;;;;;26.65;17.58;;;;;;;28.87;15.22;98969.41;5049289;27;106103;-72
2022/03/30 11:05:59;;;;;;;22.75;16.35;;;;;;;30.08;14.66;98961.22;5049596;27;106040;-71
2022/03/30 11:08:33;;;;;;;26.67;15.43;;;;;;;31.86;13.18;98955.56;5049033;27;105944;-72
2022/03/30 11:11:03;;;;;;;21.95;16.17;;;;;;;32.76;12.40;98960.34;5048729;27;106201;-72
2022/03/30 11:13:29;;;;;;;22.15;15.80;;;;;;;32.83;12.87;98957.78;5049738;27;105960;-71
2022/03/30 11:15:57;;;;;;;23.85;15.80;;;;;;;32.39;12.55;98945.47;5049417;27;105908;-72
2022/03/30 11:18:22;;;;;;;27.80;16.08;;;;;;;32.19;12.91;98949.16;5047970;27;106021;-72
2022/03/30 11:21:12;;;;;;;26.25;16.45;;;;;;;31.62;13.00;98942.56;5048923;27;106313;-70
2022/03/30 11:23:39;;;;;;;22.83;15.50;;;;;;;31.70;13.08;98942.47;5049234;27;106008;-74
2022/03/30 11:26:04;;;;;;;24.65;15.45;;;;;;;31.32;13.16;98939.97;5048992;27;106141;-73
2022/03/30 11:28:38;;;;;;;23.02;15.90;;;;;;;31.22;13.29;98944.75;5047737;27;106838;-70
2022/03/30 11:31:17;;;;;;;25.75;16.33;;;;;;;31.89;12.97;98946.59;5029668;27;106096;-72
2022/03/30 11:33:43;;;;;;;;;;;;;;;32.39;12.71;98941.91;5050164;27;106387;-71
2022/03/30 11:36:09;;;;;;;26.17;14.75;;;;;;;31.59;13.10;98938.56;5048365;27;106038;-73
2022/03/30 11:38:40;;;;;;;24.90;14.65;;;;;;;32.31;12.62;98929.84;5048800;27;107190;-71
2022/03/30 11:41:09;;;;;;;26.92;14.32;;;;;;;33.03;12.10;98931.97;5047750;27;106009;-71
2022/03/30 11:45:12;;;;;;;22.67;15.40;;;;;;;32.01;12.66;98921.84;5049240;27;106038;-75
2022/03/30 11:46:27;;;;;;;24.98;16.70;;;;;;;29.62;14.31;98936.22;5051435;27;106236;-72
2022/03/30 11:48:53;;;;;;;24.30;16.25;;;;;;;28.07;15.37;98933.94;5050994;27;106073;-76
2022/03/30 11:51:25;;;;;;;20.55;15.65;;;;;;;26.44;16.23;98927.56;5047563;27;106269;-69
2022/03/30 11:54:09;;;;;;;26.38;17.38;;;;;;;25.31;17.02;98920.38;5046370;27;106010;-76
2022/03/30 11:56:34;;;;;;;24.85;16.25;;;;;;;24.29;17.93;98925.44;5048610;27;106219;-72
2022/03/30 11:59:00;;;;;;;23.58;15.30;;;;;;;23.62;18.72;98921.56;5048229;27;106876;-72
2022/03/30 12:01:25;;;;;;;24.80;16.33;;;;;;;23.31;19.10;98916.44;5048490;27;105918;-73
2022/03/30 12:03:54;;;;;;;23.40;14.60;;;;;;;22.63;19.54;98912.56;5048890;27;106150;-71
2022/03/30 12:06:20;;;;;;;30.52;16.10;;;;;;;21.61;20.37;98911.09;5046021;27;106875;-73
2022/03/30 12:08:50;;;;;;;24.77;15.43;;;;;;;20.62;21.37;98904.81;5048455;27;106197;-70
2022/03/30 12:11:19;;;;;;;26.23;14.82;;;;;;;20.00;21.95;98913.81;5047344;27;106421;-70
2022/03/30 12:13:50;;;;;;;25.42;14.52;;;;;;;19.44;22.61;98902.44;5046930;27;106115;-72
2022/03/30 12:16:15;;;;;;;26.40;16.88;;;;;;;19.16;22.84;98898.16;5048314;27;105943;-69
2022/03/30 12:18:51;;;;;;;25.35;15.98;;;;;;;18.94;23.12;98893.69;5029310;27;107002;-71
2022/03/30 12:21:21;;;;;;;22.00;14.88;;;;;;;18.69;23.29;98896.13;5047762;27;105964;-69
2022/03/30 12:24:00;;;;;;;22.90;14.70;;;;;;;18.65;23.66;98889.63;5048091;27;105922;-69
2022/03/30 12:26:26;;;;;;;24.55;16.00;;;;;;;19.13;23.36;98879.78;5047410;27;106197;-77
2022/03/30 12:29:01;;;;;;;25.10;16.00;;;;;;;19.48;22.54;98881.13;5047077;27;124078;-74
2022/03/30 12:31:31;;;;;;;24.88;15.45;;;;;;;19.18;22.83;98868.25;5047949;27;106045;-71
2022/03/30 12:33:57;;;;;;;30.48;16.67;;;;;;;18.76;23.29;98875.16;5048527;27;106141;-71
2022/03/30 12:36:22;;;;;;;31.92;15.15;;;;;;;18.28;23.85;98869.56;5047061;27;106258;-72
2022/03/30 12:38:51;;;;;;;29.15;15.65;;;;;;;17.89;24.52;98872.31;5047924;27;105838;-76
2022/03/30 12:41:27;;;;;;;22.65;15.60;;;;;;;17.55;24.95;98870.56;5046931;27;106078;-75
2022/03/30 12:44:02;;;;;;;27.30;16.23;;;;;;;17.25;25.50;98870.94;5048376;27;105990;-75
2022/03/30 12:46:29;;;;;;;24.70;15.38;;;;;;;16.81;25.66;98863.47;5028954;27;106630;-72
2022/03/30 12:49:06;;;;;;;24.23;16.27;;;;;;;16.52;26.33;98866.19;5047687;27;106751;-72
2022/03/30 12:51:34;;;;;;;25.13;16.05;;;;;;;16.29;26.67;98860.94;5046487;27;106102;-70
2022/03/30 12:54:04;;;;;;;24.63;16.08;;;;;;;15.94;26.68;98865.41;5048168;27;105918;-77
2022/03/30 12:56:30;;;;;;;23.08;15.65;;;;;;;15.54;27.40;98850.84;5048088;27;106150;-74
2022/03/30 12:59:01;;;;;;;25.33;16.30;;;;;;;15.27;27.81;98860.41;5046348;27;106692;-72
2022/03/30 13:01:39;;;;;;;22.80;14.98;;;;;;;15.13;27.92;98847.28;5047258;27;106479;-75
2022/03/30 13:04:18;;;;;;;24.40;16.63;;;;;;;14.87;28.54;98848.50;5048005;27;106069;-71
2022/03/30 13:07:13;;;;;;;27.08;16.02;;;;;;;14.72;28.96;98848.94;5047076;27;106217;-74
2022/03/30 13:10:01;;;;;;;26.00;15.30;;;;;;;14.60;29.09;98845.41;5046978;27;106077;-74
2022/03/30 13:12:50;;;;;;;25.13;15.23;;;;;;;14.33;29.57;98845.81;5045964;27;106717;-73
2022/03/30 13:15:18;;;;;;;25.45;15.52;;;;;;;14.04;29.92;98832.19;5046766;27;106023;-74
2022/03/30 13:18:04;;;;;;;28.45;16.15;;;;;;;13.84;30.00;98832.44;5047087;27;106698;-71
2022/03/30 13:20:39;;;;;;;31.50;15.80;;;;;;;13.63;30.45;98828.38;5045829;27;106808;-71
2022/03/30 13:23:07;;;;;;;27.23;15.82;;;;;;;13.33;31.34;98837.91;5047209;27;106173;-77
2022/03/30 13:25:44;;;;;;;24.55;14.45;;;;;;;13.11;32.23;98831.31;5049545;27;105858;-73
2022/03/30 13:28:27;;;;;;;24.83;15.13;;;;;;;12.75;32.10;98836.34;5051146;27;105994;-73
2022/03/30 13:30:53;;;;;;;25.80;14.82;;;;;;;12.56;32.27;98826.63;5050850;27;106441;-71
2022/03/30 13:33:19;;;;;;;22.20;15.30;;;;;;;12.36;32.75;98839.09;5050348;27;106053;-74
2022/03/30 13:35:54;;;;;;;29.50;17.15;;;;;;;12.22;33.17;98829.53;5051507;27;105963;-77
2022/03/30 13:38:23;;;;;;;27.00;18.20;;;;;;;12.14;33.43;98829.78;5050245;27;106455;-73
2022/03/30 13:40:49;;;;;;;30.88;17.90;;;;;;;12.07;34.25;98824.47;5049543;27;106088;-75
2022/03/30 13:43:15;;;;;;;27.10;17.40;;;;;;;12.01;35.04;98828.00;5049794;27;106002;-75
2022/03/30 13:45:40;;;;;;;30.25;18.75;;;;;;;11.89;35.67;98821.66;5051422;27;105876;-73
2022/03/30 13:48:06;;;;;;;30.38;17.73;;;;;;;11.77;35.80;98822.31;5050705;27;105939;-73
2022/03/30 13:50:32;;;;;;;32.15;20.00;;;;;;;11.66;36.76;98817.66;5050093;27;106138;-75
2022/03/30 13:53:02;;;;;;;28.80;18.48;;;;;;;11.63;36.59;98820.72;5050175;27;106439;-73
2022/03/30 13:55:28;;;;;;;30.33;19.23;;;;;;;11.55;37.31;98818.28;5051287;27;106095;-71
2022/03/30 13:57:55;;;;;;;34.63;20.25;;;;;;;11.50;36.91;98819.75;5050371;27;106196;-72
2022/03/30 14:00:21;;;;;;;29.33;19.25;;;;;;;11.38;37.84;98812.59;5050017;27;105983;-75
2022/03/30 14:02:47;;;;;;;33.50;20.10;;;;;;;11.35;37.66;98808.50;5049511;27;106381;-77
2022/03/30 14:05:12;;;;;;;33.17;19.17;;;;;;;11.37;38.32;98813.63;5049802;27;105930;-73
2022/03/30 14:07:37;;;;;;;34.92;20.50;;;;;;;11.34;38.26;98804.19;5050236;27;110871;-70
2022/03/30 14:10:03;;;;;;;32.67;18.40;;;;;;;11.33;38.62;98807.88;5049607;27;106090;-74
2022/03/30 14:12:29;;;;;;;25.85;17.42;;;;;;;11.32;38.60;98807.06;5050524;27;106112;-72
2022/03/30 14:14:55;;;;;;;31.67;20.30;;;;;;;11.33;38.70;98802.56;5051020;27;106077;-72
